createdAt,value
2023-02-09T01:02:11.398Z,5.00
2023-02-09T01:05:02.043Z,5.30
2023-02-09T01:07:34.303Z,10.60
2023-02-09T01:10:03.182Z,19.20
2023-02-09T01:12:31.331Z,15.00
2023-02-09T01:15:01.943Z,10.10
2023-02-09T01:17:33.865Z,17.30
2023-02-09T01:20:01.344Z,14.40
2023-02-09T01:22:28.841Z,21.30
2023-02-09T01:24:57.003Z,12.50
2023-02-09T01:27:24.816Z,17.70
2023-02-09T01:29:52.719Z,36.40
2023-02-09T01:32:20.812Z,22.30
2023-02-09T01:34:52.664Z,30.90
2023-02-09T01:37:19.980Z,7.40
2023-02-09T01:39:47.580Z,19.60
2023-02-09T01:42:19.038Z,5.00
2023-02-09T01:44:47.109Z,9.70
2023-02-09T01:47:17.813Z,24.60
2023-02-09T01:49:46.730Z,19.40
2023-02-09T01:52:19.476Z,21.30
2023-02-09T01:54:54.146Z,21.40
2023-02-09T01:57:31.287Z,29.10
2023-02-09T02:00:04.010Z,29.50
2023-02-09T02:02:47.458Z,18.80
2023-02-09T02:05:14.926Z,30.50
2023-02-09T02:08:01.868Z,26.90
2023-02-09T02:10:30.577Z,19.80
2023-02-09T02:12:57.826Z,7.80
2023-02-09T02:15:27.293Z,24.60
2023-02-09T02:18:19.568Z,19.10
2023-02-09T02:21:13.340Z,35.50
2023-02-09T02:23:48.705Z,21.30
2023-02-09T02:26:43.462Z,15.00
2023-02-09T02:29:35.820Z,33.00
2023-02-09T02:32:21.202Z,9.90
2023-02-09T02:35:22.540Z,7.60
2023-02-09T02:37:59.306Z,9.40
2023-02-09T02:40:38.006Z,18.70
2023-02-09T02:43:25.626Z,11.10
2023-02-09T02:46:05.975Z,16.00
2023-02-09T02:48:39.777Z,12.80
2023-02-09T02:51:26.032Z,19.60
2023-02-09T02:53:56.505Z,18.10
2023-02-09T02:58:57.236Z,9.20
2023-02-09T03:01:26.207Z,10.70
2023-02-09T03:03:53.773Z,10.40
2023-02-09T03:06:20.994Z,10.70
2023-02-09T03:08:49.174Z,33.50
2023-02-09T03:11:17.846Z,19.10
2023-02-09T03:14:21.862Z,10.40
2023-02-09T03:17:29.681Z,23.00
2023-02-09T03:20:08.497Z,1.70
2023-02-09T03:22:42.194Z,16.20
2023-02-09T03:25:18.340Z,13.10
2023-02-09T03:27:51.137Z,30.60
2023-02-09T03:30:18.416Z,36.50
2023-02-09T03:32:46.427Z,33.30
2023-02-09T03:35:16.506Z,18.90
2023-02-09T03:37:46.819Z,2.00
2023-02-09T03:40:14.995Z,20.10
2023-02-09T03:42:42.404Z,24.40
2023-02-09T03:45:09.939Z,36.50
2023-02-09T03:47:37.286Z,27.10
2023-02-09T03:52:37.489Z,18.00
2023-02-09T03:55:05.461Z,11.90
2023-02-09T03:57:32.710Z,18.50
2023-02-09T04:00:12.873Z,14.90
2023-02-09T04:02:42.909Z,19.80
2023-02-09T04:05:11.082Z,13.70
2023-02-09T04:07:41.911Z,10.30
2023-02-09T04:10:10.887Z,11.20
2023-02-09T04:12:38.023Z,20.80
2023-02-09T04:15:12.496Z,10.80
2023-02-09T04:17:40.006Z,22.60
2023-02-09T04:20:08.450Z,6.90
2023-02-09T04:22:37.686Z,7.60
2023-02-09T04:25:05.252Z,13.40
2023-02-09T04:27:32.811Z,15.30
2023-02-09T04:30:00.359Z,17.80
2023-02-09T04:32:27.513Z,18.80
2023-02-09T04:34:54.609Z,41.50
2023-02-09T04:37:21.892Z,11.10
2023-02-09T04:39:49.262Z,13.20
2023-02-09T04:42:16.588Z,26.80
2023-02-09T04:45:37.509Z,19.60
2023-02-09T04:48:08.568Z,19.80
2023-02-09T04:50:38.848Z,15.80
2023-02-09T04:53:06.262Z,21.30
2023-02-09T04:55:44.482Z,23.50
2023-02-09T04:58:31.619Z,17.00
2023-02-09T05:00:59.076Z,5.10
2023-02-09T05:03:26.406Z,18.10
2023-02-09T05:06:01.272Z,13.20
2023-02-09T05:08:28.977Z,18.70
2023-02-09T05:10:56.344Z,14.20
2023-02-09T05:13:23.962Z,1.30
2023-02-09T05:15:51.274Z,13.10
2023-02-09T05:18:18.557Z,5.20
2023-02-09T05:20:46.383Z,21.30
2023-02-09T05:23:14.573Z,4.20
2023-02-09T05:25:47.977Z,4.50
2023-02-09T05:28:15.546Z,18.70
2023-02-09T05:30:43.174Z,17.80
2023-02-09T05:33:10.986Z,26.30
2023-02-09T05:35:38.867Z,19.60
2023-02-09T05:38:06.282Z,7.40
2023-02-09T05:40:34.164Z,28.00
2023-02-09T05:43:02.521Z,13.80
2023-02-09T05:45:29.887Z,10.60
2023-02-09T05:47:56.933Z,12.10
2023-02-09T05:50:24.434Z,13.10
2023-02-09T05:52:58.862Z,11.20
2023-02-09T05:55:26.310Z,14.40
2023-02-09T05:57:53.776Z,21.10
2023-02-09T06:00:23.780Z,23.40
2023-02-09T06:02:52.001Z,18.40
2023-02-09T06:05:22.115Z,18.90
2023-02-09T06:07:49.393Z,22.10
2023-02-09T06:10:17.730Z,13.60
2023-02-09T06:12:44.880Z,13.10
2023-02-09T06:15:12.195Z,6.60
2023-02-09T06:17:46.501Z,12.40
2023-02-09T06:20:13.968Z,21.40
2023-02-09T06:23:02.282Z,84.00
2023-02-09T06:25:35.658Z,31.30
2023-02-09T06:28:02.936Z,34.30
2023-02-09T06:30:30.206Z,62.30
2023-02-09T06:32:57.284Z,71.30
2023-02-09T06:35:33.556Z,37.00
2023-02-09T06:38:04.265Z,64.00
2023-02-09T06:40:31.575Z,33.50
2023-02-09T06:42:59.294Z,41.00
2023-02-09T06:45:26.588Z,68.20
2023-02-09T06:47:53.736Z,180.00
2023-02-09T06:50:23.287Z,85.10
2023-02-09T06:52:50.759Z,106.40
2023-02-09T06:55:18.299Z,136.90
2023-02-09T06:57:45.812Z,123.60
2023-02-09T07:00:14.177Z,134.20
2023-02-09T07:56:10.230Z,196.60
2023-02-09T07:58:40.212Z,295.00
2023-02-09T08:01:08.241Z,211.80
2023-02-09T08:03:35.638Z,313.50
2023-02-09T08:06:41.121Z,211.90
2023-02-09T08:09:14.069Z,159.60
2023-02-09T08:11:51.149Z,171.40
2023-02-09T08:14:40.049Z,184.40
2023-02-09T08:17:29.586Z,325.40
2023-02-09T08:20:01.254Z,212.60
2023-02-09T08:22:33.594Z,234.70
2023-02-09T08:25:04.122Z,171.00
2023-02-09T08:27:31.480Z,163.90
2023-02-09T08:29:59.078Z,151.80
2023-02-09T08:32:26.483Z,135.50
2023-02-09T08:34:54.395Z,149.70
2023-02-09T08:37:27.477Z,182.10
2023-02-09T08:39:57.706Z,169.70
2023-02-09T08:42:28.231Z,338.80
2023-02-09T08:44:55.373Z,214.10
2023-02-09T08:47:25.358Z,218.20
2023-02-09T08:49:52.409Z,274.00
2023-02-09T08:52:21.979Z,275.50
2023-02-09T08:54:49.081Z,266.50
2023-02-09T08:57:16.436Z,274.60
2023-02-09T08:59:46.418Z,318.20
2023-02-09T09:02:13.443Z,229.20
2023-02-09T09:04:40.572Z,227.20
2023-02-09T09:07:07.781Z,222.50
2023-02-09T09:09:34.965Z,227.30
2023-02-09T09:12:02.571Z,236.50
2023-02-09T09:14:30.248Z,219.90
2023-02-09T09:17:00.628Z,186.00
2023-02-09T09:19:29.341Z,161.90
2023-02-09T09:21:58.369Z,150.70
2023-02-09T09:24:28.429Z,150.00
2023-02-09T09:26:56.163Z,107.90
2023-02-09T09:29:23.751Z,108.80
2023-02-09T09:31:51.113Z,100.70
2023-02-09T09:34:18.419Z,83.40
2023-02-09T09:36:45.679Z,42.40
2023-02-09T09:39:12.930Z,95.70
2023-02-09T09:41:40.536Z,55.50
2023-02-09T09:44:15.838Z,91.00
2023-02-09T09:46:44.894Z,47.60
2023-02-09T09:49:26.717Z,92.60
2023-02-09T09:52:00.632Z,87.40
2023-02-09T09:54:30.427Z,43.50
2023-02-09T09:56:57.589Z,85.00
2023-02-09T09:59:30.932Z,81.90
2023-02-09T10:01:58.035Z,87.90
2023-02-09T10:04:25.412Z,92.80
2023-02-09T10:06:58.512Z,89.50
2023-02-09T10:09:39.257Z,89.60
2023-02-09T10:12:20.991Z,76.60
2023-02-09T10:14:48.269Z,66.60
2023-02-09T10:17:17.976Z,70.20
2023-02-09T10:19:59.670Z,64.90
2023-02-09T10:22:26.715Z,61.00
2023-02-09T10:24:54.416Z,67.50
2023-02-09T10:27:21.630Z,62.80
2023-02-09T10:29:49.139Z,59.00
2023-02-09T10:32:25.267Z,68.00
2023-02-09T10:34:53.849Z,61.30
2023-02-09T10:37:39.204Z,59.50
2023-02-09T10:40:22.787Z,61.50
2023-02-09T10:43:00.391Z,56.60
2023-02-09T10:45:41.918Z,51.80
2023-02-09T10:48:12.271Z,51.00
2023-02-09T10:50:55.743Z,42.60
2023-02-09T10:53:47.337Z,44.20
2023-02-09T10:56:17.539Z,44.90
2023-02-09T10:59:13.932Z,103.00
2023-02-09T11:01:42.410Z,102.10
2023-02-09T11:04:23.909Z,52.40
2023-02-09T11:06:57.131Z,49.50
2023-02-09T11:09:46.637Z,39.50
2023-02-09T11:12:14.458Z,44.50
2023-02-09T11:14:44.823Z,39.30
2023-02-09T11:17:24.870Z,44.00
2023-02-09T11:20:35.958Z,40.50
2023-02-09T11:23:33.955Z,36.60
2023-02-09T11:26:04.728Z,39.10
2023-02-09T11:31:27.049Z,34.90
2023-02-09T11:33:58.937Z,39.10
2023-02-09T11:36:54.333Z,35.00
2023-02-09T11:39:44.784Z,47.20
2023-02-09T11:42:33.208Z,34.80
2023-02-09T11:45:13.442Z,44.50
2023-02-09T11:47:59.986Z,34.50
2023-02-09T11:50:51.864Z,50.00
2023-02-09T11:53:38.476Z,39.70
2023-02-09T11:56:08.358Z,36.40
2023-02-09T11:58:47.542Z,152.90
2023-02-09T12:01:23.580Z,143.00
2023-02-09T12:04:24.738Z,71.90
2023-02-09T12:06:55.689Z,48.90
2023-02-09T12:09:25.874Z,40.70
2023-02-09T12:12:03.479Z,23.20
2023-02-09T12:15:06.075Z,93.30
2023-02-09T12:17:42.996Z,198.10
2023-02-09T12:20:30.045Z,50.90
2023-02-09T12:23:08.051Z,39.40
2023-02-09T12:25:59.801Z,40.20
2023-02-09T12:28:27.718Z,23.20
2023-02-09T12:30:58.536Z,29.60
2023-02-09T12:33:25.983Z,19.30
2023-02-09T12:36:08.698Z,28.70
2023-02-09T12:39:04.589Z,26.80
2023-02-09T12:41:40.976Z,39.10
2023-02-09T12:44:11.677Z,29.50
2023-02-09T12:46:45.136Z,57.30
2023-02-09T12:49:12.773Z,51.60
2023-02-09T12:51:55.866Z,42.40
2023-02-09T12:54:45.352Z,36.70
2023-02-09T12:57:16.656Z,25.70
2023-02-09T12:59:53.715Z,17.70
2023-02-09T13:02:25.436Z,24.30
2023-02-09T13:05:02.423Z,14.40
2023-02-09T13:08:00.778Z,16.80
2023-02-09T13:10:29.577Z,12.70
2023-02-09T13:13:09.395Z,17.30
2023-02-09T13:15:51.398Z,18.40
2023-02-09T13:18:48.646Z,123.10
2023-02-09T13:21:26.915Z,12.70
2023-02-09T13:23:54.757Z,10.40
2023-02-09T13:26:25.750Z,11.90
2023-02-09T13:29:20.552Z,14.90
2023-02-09T13:32:00.870Z,8.90
2023-02-09T13:34:35.865Z,8.20
2023-02-09T13:37:29.024Z,7.70
2023-02-09T13:40:00.881Z,10.30
2023-02-09T13:42:34.393Z,18.70
2023-02-09T13:45:01.571Z,15.00
2023-02-09T13:47:28.977Z,12.70
2023-02-09T13:50:04.823Z,10.40
2023-02-09T13:52:36.912Z,6.90
2023-02-09T13:55:27.406Z,24.40
2023-02-09T13:58:00.359Z,30.60
2023-02-09T14:00:38.748Z,20.30
2023-02-09T14:03:16.706Z,28.90
2023-02-09T14:05:51.656Z,68.50
2023-02-09T14:08:19.646Z,33.30
2023-02-09T14:11:36.494Z,40.90
2023-02-09T14:14:54.430Z,33.90
2023-02-09T14:17:26.173Z,61.60
2023-02-09T14:19:54.661Z,96.70
2023-02-09T14:22:36.123Z,67.50
2023-02-09T14:25:13.968Z,73.60
2023-02-09T14:27:47.405Z,65.20
2023-02-09T14:30:25.913Z,75.30
2023-02-09T14:32:57.128Z,56.90
2023-02-09T14:35:34.759Z,52.30
2023-02-09T14:38:02.708Z,73.90
2023-02-09T14:40:32.024Z,75.40
2023-02-09T14:43:27.386Z,76.70
2023-02-09T14:46:01.665Z,55.00
2023-02-09T14:48:29.921Z,71.90
2023-02-09T14:51:01.913Z,76.00
2023-02-09T14:53:31.962Z,56.80
2023-02-09T14:55:59.649Z,63.20
2023-02-09T14:58:31.375Z,66.90
2023-02-09T15:01:00.389Z,59.60
2023-02-09T15:03:28.090Z,79.90
2023-02-09T15:06:01.122Z,74.90
2023-02-09T15:08:31.751Z,74.80
2023-02-09T15:11:24.251Z,74.30
2023-02-09T15:13:53.445Z,75.30
2023-02-09T15:16:21.772Z,77.20
2023-02-09T15:18:49.060Z,66.30
2023-02-09T15:21:16.299Z,67.90
2023-02-09T15:23:43.524Z,92.60
2023-02-09T15:26:16.638Z,129.50
2023-02-09T15:28:46.876Z,183.10
2023-02-09T15:31:16.288Z,216.10
2023-02-09T15:33:43.801Z,207.20
2023-02-09T15:36:16.777Z,202.70
2023-02-09T15:38:44.155Z,156.20
2023-02-09T15:41:36.207Z,131.70
2023-02-09T15:44:38.439Z,144.10
2023-02-09T15:47:24.180Z,140.50
2023-02-09T15:49:51.202Z,75.50
2023-02-09T15:52:18.821Z,61.20
2023-02-09T15:54:46.016Z,144.30
2023-02-09T15:57:13.957Z,122.80
2023-02-09T15:59:41.685Z,50.80
2023-02-09T16:02:12.895Z,33.90
2023-02-09T19:00:30.598Z,18.50
2023-02-09T19:03:10.568Z,21.90
2023-02-09T19:05:38.097Z,19.50
2023-02-09T19:08:07.514Z,16.10
2023-02-09T19:10:41.035Z,28.90
2023-02-09T19:13:14.983Z,27.30
2023-02-09T19:15:46.189Z,19.60
2023-02-09T19:18:19.912Z,27.90
2023-02-09T19:20:47.602Z,11.50
2023-02-09T19:23:14.760Z,18.30
2023-02-09T19:25:42.605Z,35.30
2023-02-09T19:28:12.152Z,41.10
2023-02-09T19:30:40.948Z,37.30
2023-02-09T19:33:11.775Z,75.70
2023-02-09T19:35:39.057Z,23.30
2023-02-09T19:38:11.199Z,8.30
2023-02-09T19:40:41.346Z,24.50
2023-02-09T19:43:13.857Z,73.50
2023-02-09T19:45:44.914Z,42.20
2023-02-09T19:48:12.692Z,33.30
2023-02-09T19:50:58.293Z,33.40
2023-02-09T19:53:26.347Z,16.80
2023-02-09T19:55:56.873Z,46.40
2023-02-09T19:58:29.955Z,11.10
2023-02-09T20:00:57.756Z,78.20
2023-02-09T20:03:29.973Z,39.10
2023-02-09T20:06:00.425Z,25.20
2023-02-09T20:08:27.982Z,33.70
2023-02-09T20:11:01.020Z,20.20
2023-02-09T20:13:28.575Z,12.70
2023-02-09T20:16:16.280Z,21.50
2023-02-09T20:18:49.574Z,24.90
2023-02-09T20:21:19.085Z,66.00
2023-02-09T20:23:46.870Z,42.30
2023-02-09T20:26:35.840Z,131.80
2023-02-09T20:29:06.614Z,47.00
2023-02-09T20:31:44.763Z,40.40
2023-02-09T20:34:15.666Z,35.00
2023-02-09T20:36:44.845Z,57.60
2023-02-09T20:39:16.047Z,46.90
2023-02-09T20:42:07.223Z,93.80
2023-02-09T20:44:53.303Z,48.70
2023-02-09T20:47:43.508Z,22.90
2023-02-09T20:50:17.902Z,10.70
2023-02-09T20:52:45.754Z,21.70
2023-02-09T20:55:13.232Z,49.00
2023-02-09T20:57:40.851Z,27.70
2023-02-09T21:00:11.667Z,32.80
2023-02-09T21:02:39.160Z,21.10
2023-02-09T21:05:09.921Z,13.50
2023-02-09T21:07:39.537Z,12.80
2023-02-09T21:10:12.922Z,11.40
2023-02-09T21:12:41.686Z,33.60
2023-02-09T21:15:16.640Z,37.90
2023-02-09T21:17:48.682Z,19.10
2023-02-09T21:20:33.801Z,23.60
2023-02-09T21:23:08.399Z,20.10
2023-02-09T21:25:36.806Z,11.50
2023-02-09T21:28:13.134Z,22.00
2023-02-09T21:30:43.896Z,30.00
2023-02-09T21:33:11.364Z,39.20
2023-02-09T21:35:43.607Z,23.20
2023-02-09T21:38:23.499Z,21.80
2023-02-09T21:40:53.665Z,20.80
2023-02-09T21:43:26.568Z,46.60
2023-02-09T21:45:53.768Z,34.10
2023-02-09T21:48:23.925Z,45.10
2023-02-09T21:50:54.717Z,172.90
2023-02-09T21:53:28.198Z,25.80
2023-02-09T21:55:58.638Z,33.00
2023-02-09T21:58:26.253Z,45.40
2023-02-09T22:01:01.665Z,58.80
2023-02-09T22:03:29.582Z,61.00
2023-02-09T22:06:02.678Z,48.80
2023-02-09T22:08:36.244Z,34.60
2023-02-09T22:11:05.932Z,22.50
2023-02-09T22:13:36.445Z,19.20
2023-02-09T22:16:07.645Z,64.00
2023-02-09T22:18:38.733Z,47.10
2023-02-09T22:23:33.754Z,15.00
2023-02-09T22:26:05.197Z,21.70
2023-02-09T22:28:36.910Z,20.90
2023-02-09T22:31:08.585Z,35.20
2023-02-09T22:33:39.076Z,15.90
2023-02-09T22:36:11.665Z,15.50
2023-02-09T22:38:42.317Z,12.10
2023-02-09T22:41:23.917Z,10.20
2023-02-09T22:44:34.174Z,19.10
2023-02-09T22:47:32.663Z,24.50
2023-02-09T22:50:02.731Z,7.10
2023-02-09T22:52:33.447Z,10.40
2023-02-09T22:55:01.766Z,7.50
2023-02-09T22:57:34.548Z,26.40
2023-02-09T23:00:10.805Z,13.90
2023-02-09T23:02:49.953Z,6.50
2023-02-09T23:05:40.857Z,6.70
2023-02-09T23:08:14.167Z,8.50
2023-02-09T23:10:44.782Z,9.80
2023-02-09T23:13:17.018Z,7.80
2023-02-09T23:15:47.460Z,10.20
2023-02-09T23:18:15.646Z,8.40
2023-02-09T23:21:09.512Z,9.20
2023-02-09T23:23:36.841Z,14.70
2023-02-09T23:26:18.187Z,25.40
2023-02-09T23:28:48.742Z,12.30
2023-02-09T23:31:38.727Z,12.70
2023-02-09T23:34:24.718Z,15.10
2023-02-09T23:37:19.120Z,8.40
2023-02-09T23:39:56.135Z,19.30
2023-02-09T23:42:54.903Z,14.70
2023-02-09T23:45:41.198Z,7.70
2023-02-09T23:48:28.667Z,10.00
2023-02-09T23:51:03.490Z,18.40
2023-02-09T23:53:33.134Z,20.10
2023-02-09T23:56:06.641Z,13.50
2023-02-09T23:58:39.690Z,14.90
